Time;durP1;ratioP1;P1;durP2;ratioP2;P2;SDS_P1;SDS_P2;PMS_P1;PMS_P2;Temp;Humidity;BMP_temperature;BMP_pressure;BME280_temperature;BME280_humidity;BME280_pressure;Samples;Min_cycle;Max_cycle;Signal;HPM_P1;HPM_P2
2023/08/14 00:00:48;;;;;;;9.65;7.28;;;;;;;19.89;51.15;99688.00;5026731;28;20029;-71
2023/08/14 00:03:14;;;;;;;9.48;7.78;;;;;;;19.61;52.34;99689.41;5030978;28;20034;-71
2023/08/14 00:05:40;;;;;;;10.57;7.65;;;;;;;19.71;52.29;99685.00;5031344;28;20025;-71
2023/08/14 00:08:05;;;;;;;9.18;7.20;;;;;;;19.85;52.33;99687.16;5031637;28;20030;-71
2023/08/14 00:10:31;;;;;;;9.18;7.13;;;;;;;19.99;51.99;99698.66;5029028;28;20028;-71
2023/08/14 00:12:56;;;;;;;12.82;7.32;;;;;;;19.70;53.20;99691.91;5031555;28;20048;-71
2023/08/14 00:15:22;;;;;;;7.75;6.45;;;;;;;19.44;54.93;99700.19;5016946;28;20061;-71
2023/08/14 00:17:47;;;;;;;8.93;6.60;;;;;;;19.42;55.37;99696.91;5011936;28;20477;-71
2023/08/14 00:20:13;;;;;;;12.30;7.03;;;;;;;19.34;56.04;99700.91;5019557;28;20034;-71
2023/08/14 00:22:38;;;;;;;37.90;23.65;;;;;;;19.25;57.30;99698.38;5011818;28;20030;-71
2023/08/14 00:25:04;;;;;;;57.10;41.78;;;;;;;19.17;57.96;99702.34;5015535;28;20033;-71
2023/08/14 00:27:29;;;;;;;71.18;54.13;;;;;;;19.14;58.29;99686.91;5020652;28;20029;-71
2023/08/14 00:29:55;;;;;;;31.67;22.67;;;;;;;19.06;58.69;99690.88;5031299;28;20115;-71
2023/08/14 00:32:20;;;;;;;46.75;38.50;;;;;;;19.08;58.74;99694.97;5029879;28;20025;-71
2023/08/14 00:34:46;;;;;;;38.25;27.38;;;;;;;18.98;59.42;99686.31;5030845;28;20164;-71
2023/08/14 00:37:11;;;;;;;23.63;18.98;;;;;;;18.82;60.18;99693.00;5031328;28;20021;-71
2023/08/14 00:39:37;;;;;;;74.80;51.55;;;;;;;18.88;60.73;99694.28;5031099;28;20425;-71
2023/08/14 00:42:02;;;;;;;193.82;118.05;;;;;;;18.98;60.77;99689.16;5031245;28;20029;-71
2023/08/14 00:44:30;;;;;;;110.25;79.15;;;;;;;18.99;61.20;99694.41;5015591;28;20044;-71
2023/08/14 00:46:55;;;;;;;50.13;38.78;;;;;;;18.91;61.67;99685.00;5015383;28;20053;-71
2023/08/14 00:49:22;;;;;;;31.75;20.80;;;;;;;18.76;62.68;99695.38;5022250;28;20056;-71
2023/08/14 00:51:47;;;;;;;37.38;29.45;;;;;;;18.99;62.03;99693.59;5011336;28;20033;-71
2023/08/14 00:54:13;;;;;;;48.05;35.90;;;;;;;19.04;61.91;99694.09;5010142;28;20034;-71
2023/08/14 00:56:39;;;;;;;36.17;25.30;;;;;;;18.84;62.75;99682.09;5023826;28;20060;-71
2023/08/14 00:59:05;;;;;;;44.10;32.60;;;;;;;18.87;62.54;99680.50;5030919;28;20032;-71
2023/08/14 01:01:30;;;;;;;65.45;44.08;;;;;;;19.00;62.49;99695.25;5020445;28;20030;-71
2023/08/14 01:03:56;;;;;;;52.08;33.22;;;;;;;18.97;62.56;99685.47;5030560;28;20496;-71
2023/08/14 01:06:21;;;;;;;34.72;23.92;;;;;;;18.86;62.82;99688.19;5030836;28;20481;-71
2023/08/14 01:08:47;;;;;;;48.70;34.20;;;;;;;18.63;63.82;99674.97;5032651;28;20025;-71
2023/08/14 01:11:23;;;;;;;42.15;28.63;;;;;;;19.01;62.52;99682.72;5021857;28;20076;-71
2023/08/14 01:14:11;;;;;;;10.80;7.97;;;;;;;19.33;61.24;99685.91;5015372;28;20067;-71
2023/08/14 01:16:41;;;;;;;13.60;6.60;;;;;;;19.54;60.37;99692.16;5014909;28;20436;-71
2023/08/14 01:19:15;;;;;;;7.57;5.63;;;;;;;19.68;59.12;99680.97;5032439;28;20127;-71
2023/08/14 01:21:55;;;;;;;8.13;5.78;;;;;;;19.34;60.08;99681.06;5032194;28;20120;-71
2023/08/14 01:24:45;;;;;;;7.88;6.43;;;;;;;19.50;59.36;99687.28;5014895;28;20026;-71
2023/08/14 01:27:11;;;;;;;8.52;6.53;;;;;;;19.50;59.36;99686.47;5014944;28;20034;-71
2023/08/14 01:29:38;;;;;;;10.80;5.82;;;;;;;19.19;59.91;99685.75;5014766;28;20065;-71
2023/08/14 01:32:04;;;;;;;23.35;6.20;;;;;;;19.29;59.47;99678.56;5014765;28;20029;-71
2023/08/14 01:34:30;;;;;;;7.95;6.07;;;;;;;19.40;59.10;99687.97;5029081;28;20037;-71
2023/08/14 01:37:17;;;;;;;11.80;5.90;;;;;;;19.16;59.62;99690.19;5033710;28;20036;-71
2023/08/14 01:39:48;;;;;;;11.55;6.10;;;;;;;19.28;59.48;99691.09;5033389;28;20036;-71
2023/08/14 01:42:32;;;;;;;6.43;5.28;;;;;;;19.30;59.16;99686.69;5029345;28;20473;-71
2023/08/14 01:45:02;;;;;;;6.47;5.38;;;;;;;19.22;59.67;99688.63;5014670;28;20109;-71
2023/08/14 01:47:30;;;;;;;9.40;5.93;;;;;;;19.01;60.24;99688.38;5014169;28;20046;-71
2023/08/14 01:49:56;;;;;;;8.38;5.75;;;;;;;19.00;60.71;99693.22;5014432;28;20038;-71
2023/08/14 01:52:22;;;;;;;7.65;5.47;;;;;;;18.74;61.74;99677.94;5025281;28;20037;-71
2023/08/14 01:54:47;;;;;;;8.88;5.30;;;;;;;18.86;61.80;99682.53;5023027;28;20087;-71
2023/08/14 01:57:13;;;;;;;8.40;5.57;;;;;;;18.94;61.62;99681.44;5033496;28;20026;-71
2023/08/14 01:59:43;;;;;;;16.30;6.63;;;;;;;18.60;63.03;99680.59;5034031;28;20454;-71
2023/08/14 02:02:10;;;;;;;;;;;;;;;18.54;63.72;99682.94;5033264;28;20065;-71
2023/08/14 02:04:35;;;;;;;6.03;5.35;;;;;;;18.42;64.85;99677.50;5033963;28;19995;-71
2023/08/14 02:07:01;;;;;;;9.20;6.32;;;;;;;18.31;65.52;99678.19;5033729;28;20041;-71
2023/08/14 02:09:26;;;;;;;8.18;5.45;;;;;;;18.19;65.95;99675.56;5027022;28;20026;-71
2023/08/14 02:11:52;;;;;;;9.65;5.88;;;;;;;18.18;66.08;99674.78;5014363;28;20039;-71
2023/08/14 02:14:17;;;;;;;8.30;6.15;;;;;;;18.12;66.25;99672.66;5014166;28;20029;-71
2023/08/14 02:16:43;;;;;;;8.18;5.60;;;;;;;18.16;66.44;99682.00;5026433;28;20076;-71
2023/08/14 02:19:08;;;;;;;16.05;6.68;;;;;;;18.31;65.47;99681.00;5033242;28;20079;-71
2023/08/14 02:21:34;;;;;;;11.75;7.75;;;;;;;18.35;65.32;99672.56;5033680;28;20025;-71
2023/08/14 02:23:59;;;;;;;9.23;6.15;;;;;;;18.29;65.43;99665.63;5032809;28;20030;-71
2023/08/14 02:26:24;;;;;;;11.57;6.05;;;;;;;18.23;65.86;99682.13;5031105;28;20030;-71
2023/08/14 02:28:52;;;;;;;8.70;5.50;;;;;;;18.10;66.16;99671.03;5033636;28;20152;-71
2023/08/14 02:31:17;;;;;;;10.23;5.68;;;;;;;18.17;66.40;99677.97;5032838;28;20041;-71
2023/08/14 02:33:43;;;;;;;6.25;5.65;;;;;;;18.23;65.83;99673.63;5032731;28;20035;-71
2023/08/14 02:36:08;;;;;;;9.30;5.97;;;;;;;18.16;66.24;99671.53;5033331;28;20087;-71
2023/08/14 02:38:34;;;;;;;7.15;5.63;;;;;;;18.15;66.56;99674.72;5033041;28;20034;-71
2023/08/14 02:41:03;;;;;;;7.00;5.65;;;;;;;18.04;67.23;99678.19;5026412;28;20040;-71
2023/08/14 02:43:28;;;;;;;11.15;6.53;;;;;;;18.01;67.16;99681.78;5013642;28;20034;-71
2023/08/14 02:45:54;;;;;;;9.63;5.80;;;;;;;18.29;66.42;99674.91;5013130;28;20046;-71
2023/08/14 02:48:20;;;;;;;7.55;5.97;;;;;;;18.61;65.26;99673.72;5013387;28;20038;-71
2023/08/14 02:50:45;;;;;;;16.65;9.27;;;;;;;18.88;64.16;99677.28;5018396;28;20030;-71
2023/08/14 02:53:11;;;;;;;26.77;12.68;;;;;;;19.06;63.81;99679.53;5030227;28;20534;-71
2023/08/14 02:55:36;;;;;;;14.40;8.68;;;;;;;19.05;63.65;99673.06;5032952;28;20060;-71
2023/08/14 02:58:02;;;;;;;9.63;6.35;;;;;;;18.75;64.96;99675.91;5033061;28;20025;-71
2023/08/14 03:00:28;;;;;;;6.53;5.85;;;;;;;18.60;65.61;99675.75;5032015;28;20021;-71
2023/08/14 03:02:53;;;;;;;20.42;6.95;;;;;;;18.56;65.75;99674.88;5024751;28;20484;-71
2023/08/14 03:05:19;;;;;;;12.48;6.13;;;;;;;18.48;66.03;99678.81;5014189;28;20104;-71
2023/08/14 03:07:44;;;;;;;15.00;7.25;;;;;;;18.38;66.36;99680.28;5030484;28;20017;-71
2023/08/14 03:10:10;;;;;;;11.38;5.68;;;;;;;18.41;66.04;99679.53;5022154;28;20099;-71
2023/08/14 03:12:35;;;;;;;17.80;7.20;;;;;;;18.60;65.46;99669.25;5032132;28;20044;-71
2023/08/14 03:15:01;;;;;;;7.35;5.72;;;;;;;18.47;65.51;99660.22;5021678;28;20038;-72
2023/08/14 03:17:26;;;;;;;11.63;7.32;;;;;;;18.67;64.82;99664.50;5012907;28;20104;-71
2023/08/14 03:19:52;;;;;;;17.48;8.27;;;;;;;18.90;63.82;99663.53;5012815;28;20554;-71
2023/08/14 03:22:17;;;;;;;11.05;6.95;;;;;;;18.96;63.77;99668.88;5012532;28;20069;-71
2023/08/14 03:24:43;;;;;;;19.45;9.48;;;;;;;19.12;63.06;99663.81;5017990;28;20057;-71
2023/08/14 03:27:08;;;;;;;44.72;15.85;;;;;;;19.12;62.64;99674.31;5030978;28;20028;-71
2023/08/14 03:29:34;;;;;;;22.42;7.15;;;;;;;18.84;63.84;99667.94;5031734;28;20107;-71
2023/08/14 03:31:59;;;;;;;9.38;5.80;;;;;;;18.82;63.76;99661.03;5011569;28;20044;-71
2023/08/14 03:34:24;;;;;;;13.35;5.63;;;;;;;18.63;64.32;99665.63;5012719;28;20555;-71
2023/08/14 03:36:50;;;;;;;16.23;6.72;;;;;;;18.44;65.06;99666.63;5012198;28;20021;-71
2023/08/14 03:39:15;;;;;;;11.50;5.97;;;;;;;18.13;66.15;99663.78;5024526;28;20025;-71
2023/08/14 03:41:41;;;;;;;15.57;6.28;;;;;;;18.07;66.45;99666.13;5032108;28;20025;-71
2023/08/14 03:44:06;;;;;;;11.18;6.03;;;;;;;17.93;67.07;99663.88;5029923;28;20483;-71
2023/08/14 03:46:32;;;;;;;8.73;5.75;;;;;;;17.97;67.23;99663.91;5030675;28;20037;-72
2023/08/14 03:48:57;;;;;;;9.20;5.68;;;;;;;17.94;67.08;99661.84;5030843;28;20053;-75
2023/08/14 03:51:23;;;;;;;10.95;5.93;;;;;;;17.73;67.84;99651.81;5032161;28;20025;-74
2023/08/14 03:53:48;;;;;;;16.08;6.72;;;;;;;17.73;67.88;99659.50;5023618;28;20025;-73
2023/08/14 03:56:13;;;;;;;11.18;6.22;;;;;;;17.76;67.86;99665.22;5030759;28;20025;-75
2023/08/14 03:58:39;;;;;;;8.20;6.20;;;;;;;17.77;67.78;99663.19;5031884;28;20488;-73
2023/08/14 04:01:04;;;;;;;10.80;7.43;;;;;;;17.95;67.04;99669.13;5031293;28;20424;-71
2023/08/14 04:03:30;;;;;;;16.92;7.13;;;;;;;18.06;66.42;99661.66;5028714;28;20079;-75
2023/08/14 04:05:57;;;;;;;16.08;7.85;;;;;;;18.27;65.67;99668.84;5031735;28;20026;-76
2023/08/14 04:08:22;;;;;;;27.83;11.73;;;;;;;18.47;65.07;99665.88;5029377;28;20026;-76
2023/08/14 04:10:57;;;;;;;18.75;7.00;;;;;;;18.55;64.54;99667.56;5030901;28;20428;-76
2023/08/14 04:13:23;;;;;;;10.15;5.82;;;;;;;18.52;64.47;99668.34;5027007;28;20108;-76
2023/08/14 04:15:48;;;;;;;20.65;5.78;;;;;;;18.45;64.75;99663.41;5024240;28;20547;-76
2023/08/14 04:18:14;;;;;;;7.90;5.70;;;;;;;18.44;65.09;99667.44;5026892;28;20022;-76
2023/08/14 04:20:39;;;;;;;14.27;5.97;;;;;;;18.36;65.20;99671.38;5030099;28;20026;-76
2023/08/14 04:23:06;;;;;;;16.17;5.53;;;;;;;18.50;64.97;99676.41;5030954;28;20037;-76
2023/08/14 04:25:31;;;;;;;7.80;5.35;;;;;;;18.70;64.53;99681.91;5030541;28;20029;-76
2023/08/14 04:27:57;;;;;;;12.88;5.80;;;;;;;18.65;64.34;99683.91;5030563;28;20393;-76
2023/08/14 04:30:22;;;;;;;10.43;6.43;;;;;;;18.75;63.93;99682.38;5022287;28;20159;-76
2023/08/14 04:32:48;;;;;;;9.98;6.47;;;;;;;18.72;64.10;99690.88;5012690;28;20061;-76
2023/08/14 04:35:13;;;;;;;14.85;5.88;;;;;;;19.02;63.35;99701.34;5014614;28;20464;-76
2023/08/14 04:37:39;;;;;;;10.50;6.53;;;;;;;19.12;62.93;99702.69;5015606;28;20014;-76
2023/08/14 04:40:06;;;;;;;11.80;5.85;;;;;;;18.79;63.58;99694.59;5027007;28;20040;-76
2023/08/14 04:42:33;;;;;;;8.95;6.22;;;;;;;18.75;64.09;99707.09;5029965;28;20075;-76
2023/08/14 04:44:59;;;;;;;20.60;6.28;;;;;;;18.82;63.94;99704.31;5024913;28;20511;-76
2023/08/14 04:47:24;;;;;;;7.00;5.80;;;;;;;18.96;63.53;99708.56;5024988;28;20049;-75
2023/08/14 04:49:51;;;;;;;9.75;5.22;;;;;;;19.11;63.27;99712.38;5026747;28;20121;-75
2023/08/14 04:52:16;;;;;;;12.50;6.10;;;;;;;19.27;62.54;99718.66;5021500;28;20500;-75
2023/08/14 04:54:42;;;;;;;11.70;5.88;;;;;;;19.18;62.63;99710.44;5031087;28;20032;-75
2023/08/14 04:57:07;;;;;;;6.45;5.55;;;;;;;19.34;62.34;99715.09;5031018;28;20022;-75
2023/08/14 04:59:33;;;;;;;7.78;5.30;;;;;;;19.52;61.78;99718.09;5015033;28;20030;-75
2023/08/14 05:01:58;;;;;;;11.27;5.15;;;;;;;19.73;61.26;99725.16;5010238;28;20026;-76
2023/08/14 05:04:24;;;;;;;8.55;6.75;;;;;;;19.80;60.46;99724.44;5011286;28;20531;-75
2023/08/14 05:06:51;;;;;;;5.97;5.15;;;;;;;19.81;60.40;99717.53;5009895;28;20040;-75
2023/08/14 05:09:17;;;;;;;6.32;5.28;;;;;;;19.88;60.14;99726.94;5021091;28;20168;-75
2023/08/14 05:11:43;;;;;;;14.73;6.10;;;;;;;20.18;59.52;99736.53;5030952;28;20025;-75
2023/08/14 05:14:08;;;;;;;11.85;5.65;;;;;;;20.33;59.05;99728.88;5030833;28;20341;-75
2023/08/14 05:16:34;;;;;;;14.10;6.15;;;;;;;19.89;59.53;99717.22;5030994;28;20033;-75
2023/08/14 05:18:59;;;;;;;7.07;6.00;;;;;;;19.80;60.09;99732.94;5021146;28;20041;-75
2023/08/14 05:21:24;;;;;;;13.23;5.57;;;;;;;19.94;60.02;99730.25;5018119;28;20439;-76
2023/08/14 05:23:50;;;;;;;13.32;5.28;;;;;;;20.20;58.50;99731.25;5025918;28;20029;-73
2023/08/14 05:26:15;;;;;;;18.65;6.68;;;;;;;20.53;58.11;99739.97;5029690;28;20029;-72
2023/08/14 05:28:41;;;;;;;11.48;5.72;;;;;;;20.55;57.74;99729.03;5029982;28;20026;-74
2023/08/14 05:31:07;;;;;;;9.77;6.28;;;;;;;20.56;58.02;99733.50;5019119;28;20037;-72
2023/08/14 05:33:33;;;;;;;17.17;6.03;;;;;;;20.65;58.23;99733.16;5017459;28;20136;-73
2023/08/14 05:35:59;;;;;;;16.20;6.47;;;;;;;21.02;55.68;99737.81;5019857;28;20037;-74
2023/08/14 05:38:24;;;;;;;17.60;6.07;;;;;;;21.41;55.16;99731.44;5015467;28;20041;-74
2023/08/14 05:40:49;;;;;;;16.25;6.45;;;;;;;21.50;53.63;99744.47;5014650;28;20195;-75
2023/08/14 05:43:15;;;;;;;17.50;5.95;;;;;;;21.11;54.75;99737.44;5028022;28;20029;-75
2023/08/14 05:45:45;;;;;;;15.70;5.82;;;;;;;21.26;54.34;99730.56;5027792;28;20083;-75
2023/08/14 05:48:12;;;;;;;14.77;5.93;;;;;;;21.72;53.92;99737.63;5028007;28;20593;-76
2023/08/14 05:50:38;;;;;;;13.80;6.28;;;;;;;22.00;53.89;99743.69;5026939;28;20038;-75
2023/08/14 05:53:04;;;;;;;13.30;5.68;;;;;;;21.99;52.49;99744.94;5024261;28;20061;-76
2023/08/14 05:55:32;;;;;;;14.88;5.18;;;;;;;21.82;51.44;99735.97;5022008;28;20053;-74
2023/08/14 05:57:58;;;;;;;19.83;5.20;;;;;;;21.99;51.69;99737.22;5011883;28;20026;-75
2023/08/14 06:00:26;;;;;;;17.20;5.97;;;;;;;22.16;51.79;99734.75;5018330;28;20021;-76
2023/08/14 06:02:52;;;;;;;14.75;5.95;;;;;;;22.27;50.35;99735.56;5027618;28;20041;-75
2023/08/14 06:05:18;;;;;;;31.75;6.55;;;;;;;22.17;50.76;99739.22;5025265;28;20036;-76
2023/08/14 06:07:44;;;;;;;27.15;6.25;;;;;;;22.28;49.82;99742.88;5031452;28;20420;-76
2023/08/14 06:10:10;;;;;;;21.10;6.05;;;;;;;22.62;49.68;99735.09;5027307;28;20436;-75
2023/08/14 06:12:35;;;;;;;38.38;10.32;;;;;;;23.00;48.77;99736.19;5052919;28;20174;-75
2023/08/14 06:15:01;;;;;;;22.45;6.38;;;;;;;23.25;48.21;99735.25;5043123;28;20021;-75
2023/08/14 06:17:27;;;;;;;18.45;5.28;;;;;;;23.45;46.88;99737.59;5020696;28;20032;-75
2023/08/14 06:19:53;;;;;;;34.42;7.40;;;;;;;23.21;47.18;99736.50;5014097;28;20049;-75
2023/08/14 06:22:19;;;;;;;26.20;6.13;;;;;;;23.27;47.01;99732.81;5024899;28;20033;-79
2023/08/14 06:24:44;;;;;;;16.23;4.60;;;;;;;23.26;46.31;99730.34;5025312;28;20097;-80
2023/08/14 06:27:10;;;;;;;26.02;5.97;;;;;;;23.57;46.40;99736.31;5021494;28;20129;-76
2023/08/14 06:29:35;;;;;;;28.77;5.45;;;;;;;23.67;45.85;99735.44;5025131;28;20026;-77
2023/08/14 06:32:01;;;;;;;14.95;4.82;;;;;;;23.56;46.38;99737.56;5013622;28;20072;-76
2023/08/14 06:34:27;;;;;;;11.10;4.93;;;;;;;23.33;46.97;99738.09;5016824;28;20101;-76
2023/08/14 06:36:52;;;;;;;12.68;4.80;;;;;;;23.63;46.42;99740.34;5013641;28;20017;-76
2023/08/14 06:39:18;;;;;;;19.45;4.65;;;;;;;23.85;46.43;99737.31;5013455;28;20484;-76
2023/08/14 06:41:43;;;;;;;9.48;4.30;;;;;;;23.97;46.68;99738.88;5029484;28;20486;-76
2023/08/14 06:44:09;;;;;;;22.40;4.28;;;;;;;24.12;46.14;99733.84;5032309;28;20025;-76
2023/08/14 06:46:35;;;;;;;11.25;5.05;;;;;;;24.20;45.77;99744.00;5029381;28;20528;-75
2023/08/14 06:49:00;;;;;;;8.80;4.03;;;;;;;24.11;45.67;99744.50;5032991;28;20463;-75
2023/08/14 06:51:26;;;;;;;11.98;4.03;;;;;;;24.32;45.37;99747.56;5032416;28;20022;-75
2023/08/14 06:53:51;;;;;;;8.13;3.88;;;;;;;24.40;45.21;99749.94;5019283;28;20028;-74
2023/08/14 06:56:17;;;;;;;22.27;4.85;;;;;;;24.64;45.31;99744.38;5031311;28;20041;-74
2023/08/14 06:58:42;;;;;;;16.25;4.90;;;;;;;25.05;45.24;99745.56;5030032;28;20129;-75
2023/08/14 07:01:08;;;;;;;6.45;3.75;;;;;;;25.21;44.55;99749.84;5018313;28;20060;-74
2023/08/14 07:03:33;;;;;;;9.35;3.40;;;;;;;25.24;44.60;99749.78;5020749;28;20546;-76
2023/08/14 07:05:59;;;;;;;6.70;3.58;;;;;;;25.61;44.87;99750.13;5022898;28;20029;-76
2023/08/14 07:08:24;;;;;;;5.65;3.30;;;;;;;25.43;43.70;99750.38;5015411;28;20040;-76
2023/08/14 07:10:50;;;;;;;6.78;3.60;;;;;;;25.53;43.57;99753.53;5020769;28;20054;-76
2023/08/14 07:13:16;;;;;;;7.57;3.75;;;;;;;25.86;42.96;99756.69;5022384;28;20025;-76
2023/08/14 07:15:41;;;;;;;4.45;3.35;;;;;;;25.64;44.06;99752.13;5013536;28;20018;-76
2023/08/14 07:18:07;;;;;;;9.00;4.20;;;;;;;25.81;43.70;99751.47;5012613;28;20437;-76
2023/08/14 07:20:33;;;;;;;4.28;3.25;;;;;;;25.77;42.43;99752.34;5014949;28;20052;-76
2023/08/14 07:22:59;;;;;;;6.57;4.05;;;;;;;25.49;41.18;99747.88;5023541;28;20026;-76
2023/08/14 07:25:25;;;;;;;7.53;3.30;;;;;;;25.81;40.45;99740.81;5012570;28;20030;-76
2023/08/14 07:27:50;;;;;;;11.95;5.15;;;;;;;26.27;41.88;99755.66;5010572;28;20049;-76
2023/08/14 07:30:16;;;;;;;6.03;3.47;;;;;;;26.28;39.15;99742.09;5020009;28;20044;-77
2023/08/14 07:32:41;;;;;;;10.95;4.22;;;;;;;26.33;38.98;99748.16;5011065;28;20017;-76
2023/08/14 07:35:07;;;;;;;4.28;3.70;;;;;;;26.66;39.45;99747.53;5013696;28;20021;-76
2023/08/14 07:37:32;;;;;;;4.20;3.45;;;;;;;26.98;38.77;99751.84;5010132;28;20500;-76
2023/08/14 07:39:59;;;;;;;6.15;2.88;;;;;;;27.09;38.77;99750.81;5014218;28;20025;-75
2023/08/14 07:42:24;;;;;;;4.63;3.00;;;;;;;27.01;37.91;99756.69;5016446;28;20025;-76
2023/08/14 07:44:50;;;;;;;14.00;3.45;;;;;;;26.87;37.46;99754.13;5012635;28;20057;-76
2023/08/14 07:47:15;;;;;;;10.48;3.63;;;;;;;26.88;37.57;99752.88;5021014;28;20037;-75
2023/08/14 07:49:40;;;;;;;8.18;3.05;;;;;;;26.98;37.82;99756.81;5014817;28;20071;-77
2023/08/14 07:52:06;;;;;;;10.23;4.93;;;;;;;26.94;37.33;99756.88;5017588;28;20026;-75
2023/08/14 07:54:32;;;;;;;5.03;3.88;;;;;;;26.98;37.64;99756.81;5017753;28;20030;-75
2023/08/14 07:56:57;;;;;;;11.07;3.78;;;;;;;26.92;38.45;99756.50;5009926;28;20026;-76
2023/08/14 07:59:23;;;;;;;5.80;4.63;;;;;;;27.10;37.83;99767.63;5012284;28;20152;-75
2023/08/14 08:01:48;;;;;;;7.68;3.97;;;;;;;27.20;37.54;99762.88;5011282;28;20029;-75
2023/08/14 08:04:14;;;;;;;9.73;3.25;;;;;;;27.40;36.78;99762.84;5020554;28;20120;-75
2023/08/14 08:06:39;;;;;;;9.45;3.50;;;;;;;27.46;36.82;99752.47;5017230;28;20033;-76
2023/08/14 08:09:05;;;;;;;15.27;4.10;;;;;;;27.75;37.40;99756.75;5015382;28;20452;-75
2023/08/14 08:11:33;;;;;;;10.95;3.22;;;;;;;28.03;36.73;99746.59;5019915;28;20049;-73
2023/08/14 08:13:59;;;;;;;13.25;4.00;;;;;;;28.36;35.26;99747.88;5011154;28;20818;-75
2023/08/14 08:16:25;;;;;;;5.20;3.90;;;;;;;28.51;35.91;99748.31;5011817;28;20018;-75
2023/08/14 08:18:50;;;;;;;9.20;3.13;;;;;;;28.70;36.17;99750.22;5014399;28;20080;-75
2023/08/14 08:21:16;;;;;;;3.50;2.50;;;;;;;28.73;35.20;99748.50;5019881;28;20017;-75
2023/08/14 08:23:41;;;;;;;3.75;3.03;;;;;;;28.42;35.28;99746.06;5019004;28;20032;-75
2023/08/14 08:26:07;;;;;;;8.07;3.08;;;;;;;28.70;35.23;99747.34;5011820;28;20455;-75
2023/08/14 08:28:32;;;;;;;8.63;2.92;;;;;;;28.91;34.68;99735.72;5017343;28;20018;-74
2023/08/14 08:30:58;;;;;;;8.60;3.28;;;;;;;28.93;34.43;99739.72;5012225;28;20041;-73
2023/08/14 08:33:23;;;;;;;10.10;2.72;;;;;;;28.90;33.13;99740.66;5022996;28;20033;-75
2023/08/14 08:35:49;;;;;;;3.20;2.72;;;;;;;28.56;33.28;99736.22;5017387;28;20546;-75
2023/08/14 08:38:14;;;;;;;6.05;2.78;;;;;;;29.16;33.43;99729.19;5022175;28;20026;-74
2023/08/14 08:40:46;;;;;;;4.63;2.95;;;;;;;29.32;33.72;99733.25;5009662;28;20026;-74
2023/08/14 08:43:13;;;;;;;4.82;2.53;;;;;;;29.38;33.81;99728.53;5013736;28;20390;-74
2023/08/14 08:45:47;;;;;;;5.10;2.50;;;;;;;29.38;33.05;99737.19;5014391;28;20117;-74
2023/08/14 08:48:16;;;;;;;3.40;2.60;;;;;;;29.49;32.75;99731.09;5020533;28;20063;-74
2023/08/14 08:50:42;;;;;;;2.67;2.40;;;;;;;29.55;32.07;99732.94;5017567;28;20040;-74
2023/08/14 08:53:08;;;;;;;7.47;2.78;;;;;;;29.63;32.39;99733.53;5019692;28;20034;-74
2023/08/14 08:55:33;;;;;;;7.43;3.30;;;;;;;30.03;31.55;99723.56;5020188;28;20029;-75
2023/08/14 08:58:00;;;;;;;4.57;3.10;;;;;;;30.31;31.76;99721.00;5023062;28;20033;-75
2023/08/14 09:00:26;;;;;;;3.75;3.28;;;;;;;29.87;30.71;99730.28;5013200;28;20029;-75
2023/08/14 09:02:52;;;;;;;8.20;3.28;;;;;;;30.17;30.79;99725.19;5010503;28;20041;-75
2023/08/14 09:05:17;;;;;;;7.22;2.88;;;;;;;30.07;30.89;99724.28;5013720;28;20408;-72
2023/08/14 09:07:43;;;;;;;83.00;7.65;;;;;;;29.80;31.02;99714.03;5010210;28;20077;-71
2023/08/14 09:10:09;;;;;;;169.60;12.82;;;;;;;29.84;30.71;99708.97;5013324;28;20069;-72
2023/08/14 09:12:35;;;;;;;4.82;2.80;;;;;;;29.84;30.12;99714.72;5013377;28;20053;-72
2023/08/14 09:15:05;;;;;;;7.82;3.45;;;;;;;29.53;30.81;99721.06;5015255;28;20129;-70
2023/08/14 09:17:31;;;;;;;4.07;2.45;;;;;;;29.49;30.49;99716.69;5019401;28;20408;-71
2023/08/14 09:19:56;;;;;;;4.50;3.47;;;;;;;29.18;31.28;99712.25;5015872;28;20034;-73
2023/08/14 09:22:25;;;;;;;4.50;3.00;;;;;;;28.83;30.77;99712.06;5009869;28;20084;-73
2023/08/14 09:24:51;;;;;;;6.13;2.90;;;;;;;28.89;30.93;99713.13;5011718;28;20616;-75
2023/08/14 09:27:16;;;;;;;4.78;2.45;;;;;;;29.03;30.90;99702.44;5011697;28;20176;-71
2023/08/14 09:29:42;;;;;;;4.20;2.63;;;;;;;29.06;30.49;99707.28;5013763;28;20432;-71
2023/08/14 09:32:10;;;;;;;4.20;2.45;;;;;;;29.27;30.53;99706.63;5016183;28;20041;-73
2023/08/14 09:34:37;;;;;;;3.20;2.85;;;;;;;29.25;31.60;99703.41;5024534;28;20476;-74
2023/08/14 09:37:04;;;;;;;5.18;3.15;;;;;;;29.29;31.25;99691.78;5017597;28;20559;-73
2023/08/14 09:39:30;;;;;;;4.35;2.90;;;;;;;28.90;31.24;99700.34;5019399;28;20495;-73
2023/08/14 09:41:55;;;;;;;5.75;2.67;;;;;;;29.24;32.17;99700.97;5023064;28;20034;-74
2023/08/14 09:44:23;;;;;;;3.85;2.42;;;;;;;29.17;31.69;99701.22;5024630;28;20034;-72
2023/08/14 09:46:51;;;;;;;8.15;2.90;;;;;;;29.31;31.83;99700.78;5024148;28;20050;-71
2023/08/14 09:49:18;;;;;;;5.15;2.75;;;;;;;29.72;31.58;99708.97;5021524;28;20112;-75
2023/08/14 09:51:56;;;;;;;3.20;2.60;;;;;;;29.64;30.42;99708.41;5026675;28;20026;-76
2023/08/14 09:54:33;;;;;;;3.13;2.47;;;;;;;29.55;29.92;99704.13;5017622;28;20029;-73
2023/08/14 09:57:00;;;;;;;7.45;2.55;;;;;;;29.37;30.52;99698.91;5028002;28;20062;-71
2023/08/14 09:59:27;;;;;;;6.38;2.75;;;;;;;29.46;31.00;99700.34;5023001;28;20022;-71
2023/08/14 10:01:58;;;;;;;2.70;2.50;;;;;;;29.54;31.46;99699.63;5021629;28;20037;-71
2023/08/14 10:04:23;;;;;;;3.50;2.80;;;;;;;29.60;29.77;99701.97;5027997;28;20135;-71
2023/08/14 10:06:51;;;;;;;2.58;2.25;;;;;;;29.60;29.63;99701.97;5029123;28;20053;-73
2023/08/14 10:09:21;;;;;;;7.32;3.13;;;;;;;29.57;29.77;99695.03;5025010;28;20484;-72
2023/08/14 10:11:48;;;;;;;10.93;3.20;;;;;;;29.83;30.68;99701.59;5017585;28;20035;-73
2023/08/14 10:14:17;;;;;;;3.15;2.85;;;;;;;30.12;30.98;99697.75;5019710;28;20064;-74
2023/08/14 10:16:43;;;;;;;2.83;2.30;;;;;;;30.23;29.69;99688.72;5030106;28;20032;-74
2023/08/14 10:19:12;;;;;;;6.22;3.35;;;;;;;30.38;28.99;99689.00;5017787;28;20096;-74
2023/08/14 10:21:40;;;;;;;3.45;2.38;;;;;;;30.38;29.80;99683.22;5021157;28;20048;-74
2023/08/14 10:24:07;;;;;;;5.40;2.67;;;;;;;30.58;29.49;99679.22;5019881;28;20049;-74
2023/08/14 10:26:34;;;;;;;3.30;2.65;;;;;;;31.02;29.24;99684.19;5022625;28;20392;-74
2023/08/14 10:29:00;;;;;;;4.65;2.50;;;;;;;31.35;29.21;99680.88;5019036;28;20079;-74
2023/08/14 10:31:29;;;;;;;14.05;3.22;;;;;;;31.35;28.67;99688.72;5014917;28;20053;-74
2023/08/14 10:33:56;;;;;;;5.78;3.03;;;;;;;31.43;27.67;99678.50;5028890;28;20036;-73
2023/08/14 10:36:26;;;;;;;6.53;2.65;;;;;;;31.65;27.45;99677.59;5018638;28;20038;-73
2023/08/14 10:38:51;;;;;;;6.13;3.55;;;;;;;31.61;27.34;99674.03;5015619;28;20183;-73
2023/08/14 10:41:17;;;;;;;3.22;2.85;;;;;;;31.40;28.11;99672.84;5016202;28;20116;-73
2023/08/14 10:43:47;;;;;;;7.65;3.05;;;;;;;31.11;28.55;99677.66;5024501;28;20113;-73
2023/08/14 10:46:16;;;;;;;3.85;2.63;;;;;;;30.76;27.77;99669.09;5015246;28;20424;-73
2023/08/14 10:48:44;;;;;;;4.68;2.60;;;;;;;30.89;29.37;99669.84;5014496;28;20022;-73
2023/08/14 10:51:12;;;;;;;5.78;2.88;;;;;;;31.31;28.73;99659.19;5014668;28;20428;-73
2023/08/14 10:53:40;;;;;;;6.05;3.03;;;;;;;31.42;28.22;99668.22;5026271;28;20034;-73
2023/08/14 10:56:06;;;;;;;4.20;2.75;;;;;;;31.54;28.03;99649.13;5017718;28;20126;-74
2023/08/14 10:58:31;;;;;;;5.47;2.70;;;;;;;31.65;27.56;99645.81;5013891;28;20534;-73
2023/08/14 11:01:10;;;;;;;5.88;3.10;;;;;;;31.64;28.33;99656.56;5015726;28;20157;-73
2023/08/14 11:03:55;;;;;;;6.53;3.33;;;;;;;31.75;27.77;99653.22;5021047;28;20754;-73
2023/08/14 11:06:23;;;;;;;8.55;2.85;;;;;;;31.31;28.91;99659.19;5016970;28;20033;-73
2023/08/14 11:08:50;;;;;;;4.63;2.80;;;;;;;30.97;29.18;99647.28;5022949;28;20501;-73
2023/08/14 11:11:15;;;;;;;8.75;2.72;;;;;;;30.98;29.50;99648.88;5016577;28;20029;-73
2023/08/14 11:13:41;;;;;;;4.38;2.80;;;;;;;31.36;28.18;99642.03;5019170;28;21689;-73
2023/08/14 11:16:07;;;;;;;7.18;2.88;;;;;;;31.66;27.44;99641.63;5021392;28;20025;-73
2023/08/14 11:18:32;;;;;;;5.45;2.95;;;;;;;31.16;27.67;99642.41;5020430;28;20087;-73
2023/08/14 11:21:00;;;;;;;3.72;3.28;;;;;;;31.21;28.81;99630.22;5022645;28;20028;-73
2023/08/14 11:23:25;;;;;;;4.57;2.95;;;;;;;31.25;28.34;99633.00;5020542;28;20511;-73
2023/08/14 11:25:51;;;;;;;5.50;3.13;;;;;;;30.31;28.78;99620.06;5018268;28;20030;-73